Chandler, MN

4:26 AM CST on December 11, 2016 (GMT -0600)
Chandler | | Change Station

Elev 1424 ft 45.87 °N, 95.39 °W | Updated 12 minutes ago

Light Snow
Light Snow Mist
11 °F
Feels Like -3 °F
N
12
Wind Variable Wind from East

Today
High -- | Low -- °F
--% Chance of Precip.
Yesterday
High -- | Low -- °F
Precip. -- in
Pressure 29.97 in
Visibility 1.2 miles
Clouds Overcast 1600 ft
Windchill -3 °F
Dew Point 7 °F
Humidity 84%
Rainfall 0.00 in
Snow Depth Not available.
7:53 AM 4:36 PM
Waxing Gibbous, 90% visible
SPECI KAXN 111014Z AUTO 08010KT 1 1/4SM -SN BR OVC016 M12/M14 A2997 RMK AO2 P0000 T11171139 $
Pressure 29.97 in
Visibility 1.2 miles
Clouds Overcast 1600 ft
Windchill -3 °F
Dew Point 7 °F
Humidity 84%
Rainfall 0.00 in
Snow Depth Not available.
7:53 AM 4:36 PM
Waxing Gibbous, 90% visible
SPECI KAXN 111014Z AUTO 08010KT 1 1/4SM -SN BR OVC016 M12/M14 A2997 RMK AO2 P0000 T11171139 $

10-Day Weather Forecast

Almanac

Astronomy

Dec. 11, 2016 Rise Set
Actual Time
Civil Twilight
Nautical Twilight
Astronomical Twilight
Moon
Length of Visible Light
Length of Day
Tomorrow will be .
, % of the Moon is Illuminated

Today's Extremes

State Highs State Lows

Community

WunderPhotos

Upload Photos

1,956,702 photos uploaded!

WunderBlog® & News

Nearby

Air Quality

  Air Quality AQ Index Pollutant
Not available.

Snow Depth

Station Depth Elevation

Earthquake Activity

City Distance Mag. Time & Date
Minimum magnitude displayed is 2.5.

Coastal Water Temperatures

Place Temperature

Stations

Nearby Weather Stations

Station Location Temp. Windchill Dew Point Humidity Wind Precip. Elev Updated Type
                   

Watches & Warnings

There are currently no watches in effect.